createdAt,value
2023-01-23T00:01:19.453Z,102533.40
2023-01-23T00:04:44.953Z,102542.16
2023-01-23T00:08:12.214Z,102547.39
2023-01-23T00:11:39.232Z,102549.79
2023-01-23T00:15:07.811Z,102554.30
2023-01-23T00:18:34.846Z,102560.76
2023-01-23T00:22:03.069Z,102567.25
2023-01-23T00:25:30.209Z,102566.17
2023-01-23T00:28:57.541Z,102568.44
2023-01-23T00:32:24.690Z,102569.86
2023-01-23T00:35:55.587Z,102571.84
2023-01-23T00:39:23.704Z,102575.53
2023-01-23T00:42:51.689Z,102575.41
2023-01-23T00:46:18.669Z,102579.00
2023-01-23T00:49:45.691Z,102577.28
2023-01-23T00:53:13.144Z,102575.78
2023-01-23T00:56:40.155Z,102578.61
2023-01-23T01:00:09.332Z,102578.48
2023-01-23T01:03:36.870Z,102573.00
2023-01-23T01:07:04.086Z,102568.61
2023-01-23T01:10:33.012Z,102572.27
2023-01-23T01:14:01.393Z,102569.86
2023-01-23T01:17:29.059Z,102570.13
2023-01-23T01:20:57.729Z,102570.63
2023-01-23T01:24:26.845Z,102571.89
2023-01-23T01:27:55.990Z,102574.74
2023-01-23T01:31:23.289Z,102572.13
2023-01-23T01:34:52.194Z,102578.78
2023-01-23T01:38:19.122Z,102581.66
2023-01-23T01:41:46.872Z,102581.34
2023-01-23T01:45:47.655Z,102582.64
2023-01-23T01:49:21.339Z,102585.73
2023-01-23T01:52:48.862Z,102588.73
2023-01-23T01:56:18.603Z,102590.66
2023-01-23T01:59:49.039Z,102592.98
2023-01-23T02:03:17.030Z,102592.76
2023-01-23T02:06:44.483Z,102597.25
2023-01-23T02:10:14.279Z,102598.25
2023-01-23T02:13:43.105Z,102606.27
2023-01-23T02:17:11.177Z,102605.24
2023-01-23T02:20:38.777Z,102608.33
2023-01-23T02:24:15.556Z,102612.00
2023-01-23T02:27:42.768Z,102611.45
2023-01-23T02:31:11.076Z,102610.34
2023-01-23T02:34:38.902Z,102606.27
2023-01-23T02:38:07.644Z,102604.37
2023-01-23T02:41:37.614Z,102594.53
2023-01-23T02:45:05.211Z,102600.02
2023-01-23T02:48:32.183Z,102600.02
2023-01-23T02:51:59.902Z,102603.64
2023-01-23T02:55:29.805Z,102601.06
2023-01-23T02:59:14.678Z,102595.07
2023-01-23T03:02:41.807Z,102595.56
2023-01-23T03:06:11.607Z,102594.71
2023-01-23T03:09:38.788Z,102587.42
2023-01-23T03:13:07.430Z,102584.09
2023-01-23T03:16:36.622Z,102593.21
2023-01-23T03:20:06.287Z,102595.02
2023-01-23T03:23:33.993Z,102594.06
2023-01-23T03:27:00.979Z,102596.60
2023-01-23T03:30:29.127Z,102597.23
2023-01-23T03:33:56.072Z,102606.59
2023-01-23T03:37:23.956Z,102609.64
2023-01-23T03:41:09.875Z,102614.10
2023-01-23T03:44:37.440Z,102620.34
2023-01-23T03:48:04.672Z,102628.18
2023-01-23T03:51:32.621Z,102629.47
2023-01-23T03:54:59.575Z,102632.73
2023-01-23T03:58:26.665Z,102642.64
2023-01-23T04:01:54.360Z,102647.31
2023-01-23T04:05:22.005Z,102654.48
2023-01-23T04:08:49.227Z,102658.86
2023-01-23T04:12:17.299Z,102663.86
2023-01-23T04:15:47.884Z,102662.16
2023-01-23T04:19:19.637Z,102665.64
2023-01-23T04:22:47.155Z,102675.15
2023-01-23T04:26:15.186Z,102672.85
2023-01-23T04:29:43.561Z,102678.41
2023-01-23T04:33:10.879Z,102679.75
2023-01-23T04:36:38.930Z,102676.89
2023-01-23T04:40:07.455Z,102676.40
2023-01-23T04:43:43.013Z,102677.88
2023-01-23T04:47:11.739Z,102680.23
2023-01-23T04:50:39.826Z,102683.11
2023-01-23T04:54:07.163Z,102683.58
2023-01-23T04:57:34.236Z,102687.43
2023-01-23T05:01:11.065Z,102689.33
2023-01-23T05:04:38.555Z,102688.71
2023-01-23T05:08:06.027Z,102687.06
2023-01-23T05:11:33.346Z,102686.61
2023-01-23T05:15:00.388Z,102688.15
2023-01-23T05:18:28.004Z,102693.31
2023-01-23T05:21:56.420Z,102703.33
2023-01-23T05:25:25.911Z,102711.31
2023-01-23T05:28:54.646Z,102718.77
2023-01-23T05:32:21.805Z,102721.42
2023-01-23T05:36:18.691Z,102720.96
2023-01-23T05:39:46.291Z,102721.48
2023-01-23T05:43:15.141Z,102726.45
2023-01-23T05:47:02.452Z,102731.87
2023-01-23T05:50:30.466Z,102738.69
2023-01-23T05:53:57.675Z,102738.86
2023-01-23T05:57:25.196Z,102748.08
2023-01-23T06:01:12.413Z,102748.30
2023-01-23T06:04:58.337Z,102755.45
2023-01-23T06:08:32.096Z,102760.09
2023-01-23T06:11:59.261Z,102764.90
2023-01-23T06:15:26.307Z,102771.41
2023-01-23T06:18:55.188Z,102770.98
2023-01-23T06:22:22.858Z,102768.17
2023-01-23T06:26:02.113Z,102774.86
2023-01-23T06:29:29.779Z,102783.94
2023-01-23T06:32:56.942Z,102782.09
2023-01-23T06:36:30.858Z,102788.93
2023-01-23T06:39:58.715Z,102802.07
2023-01-23T06:43:26.988Z,102801.71
2023-01-23T06:46:56.657Z,102801.52
2023-01-23T06:50:24.189Z,102806.94
2023-01-23T06:53:51.400Z,102816.27
2023-01-23T06:57:18.454Z,102822.45
2023-01-23T07:00:46.326Z,102820.29
2023-01-23T07:04:26.300Z,102825.38
2023-01-23T07:07:53.955Z,102826.33
2023-01-23T07:11:21.094Z,102828.36
2023-01-23T07:14:48.175Z,102835.77
2023-01-23T07:18:19.591Z,102832.50
2023-01-23T07:21:48.879Z,102831.52
2023-01-23T07:25:16.304Z,102836.48
2023-01-23T07:28:43.878Z,102833.10
2023-01-23T07:32:11.413Z,102830.83
2023-01-23T07:35:41.279Z,102828.65
2023-01-23T07:39:08.299Z,102817.36
2023-01-23T07:42:35.265Z,102810.49
2023-01-23T07:46:03.319Z,102812.10
2023-01-23T07:49:30.399Z,102816.02
2023-01-23T07:52:57.393Z,102821.33
2023-01-23T07:56:24.411Z,102822.96
2023-01-23T07:59:51.781Z,102823.59
2023-01-23T08:03:20.836Z,102827.67
2023-01-23T08:06:47.856Z,102828.85
2023-01-23T08:10:15.725Z,102828.96
2023-01-23T08:13:42.979Z,102834.52
2023-01-23T08:17:10.136Z,102837.73
2023-01-23T08:20:37.265Z,102838.09
2023-01-23T08:24:06.398Z,102837.32
2023-01-23T08:27:33.431Z,102843.26
2023-01-23T08:31:06.144Z,102844.27
2023-01-23T08:34:33.704Z,102847.48
2023-01-23T08:38:02.512Z,102846.91
2023-01-23T08:41:29.555Z,102847.87
2023-01-23T08:44:56.854Z,102855.58
2023-01-23T08:48:24.899Z,102863.11
2023-01-23T08:51:52.140Z,102860.75
2023-01-23T08:55:19.464Z,102863.77
2023-01-23T08:58:47.036Z,102863.65
2023-01-23T09:02:15.394Z,102866.29
2023-01-23T09:05:42.786Z,102870.02
2023-01-23T09:09:10.006Z,102871.73
2023-01-23T09:12:37.548Z,102871.32
2023-01-23T09:16:05.618Z,102872.27
2023-01-23T09:19:34.901Z,102874.39
2023-01-23T09:23:02.031Z,102881.80
2023-01-23T09:26:29.094Z,102883.88
2023-01-23T09:29:56.203Z,102888.13
2023-01-23T09:33:27.216Z,102887.98
2023-01-23T09:36:55.169Z,102883.10
2023-01-23T09:40:24.736Z,102881.30
2023-01-23T09:43:57.215Z,102879.23
2023-01-23T09:47:33.889Z,102878.55
2023-01-23T09:51:06.221Z,102884.83
2023-01-23T09:54:43.367Z,102886.55
2023-01-23T09:58:19.575Z,102890.59
2023-01-23T10:01:46.620Z,102890.98
2023-01-23T10:05:17.280Z,102884.71
2023-01-23T10:09:04.809Z,102886.01
2023-01-23T10:12:41.036Z,102892.17
2023-01-23T10:16:26.581Z,102889.84
2023-01-23T10:20:17.750Z,102886.77
2023-01-23T10:23:58.600Z,102887.54
2023-01-23T10:27:32.465Z,102885.89
2023-01-23T10:31:04.000Z,102892.86
2023-01-23T10:34:39.365Z,102897.33
2023-01-23T10:38:20.562Z,102899.43
2023-01-23T10:41:54.315Z,102897.94
2023-01-23T10:45:28.163Z,102898.45
2023-01-23T10:48:55.982Z,102898.39
2023-01-23T10:52:38.209Z,102898.52
2023-01-23T10:56:06.011Z,102894.80
2023-01-23T10:59:37.099Z,102895.30
2023-01-23T11:03:27.549Z,102895.19
2023-01-23T11:07:06.140Z,102888.55
2023-01-23T11:10:33.163Z,102886.48
2023-01-23T11:14:13.222Z,102883.22
2023-01-23T11:17:43.128Z,102880.64
2023-01-23T11:21:23.378Z,102879.86
2023-01-23T11:24:50.485Z,102880.59
2023-01-23T11:28:27.058Z,102875.61
2023-01-23T11:31:59.029Z,102871.22
2023-01-23T11:35:38.831Z,102866.98
2023-01-23T11:39:13.330Z,102864.50
2023-01-23T11:42:43.287Z,102867.58
2023-01-23T11:46:40.679Z,102864.27
2023-01-23T11:50:23.724Z,102858.73
2023-01-23T11:54:02.909Z,102854.92
2023-01-23T11:57:44.815Z,102859.13
2023-01-23T12:01:21.711Z,102857.92
2023-01-23T12:05:12.526Z,102856.45
2023-01-23T12:08:49.928Z,102851.95
2023-01-23T12:12:27.891Z,102854.11
2023-01-23T12:16:09.965Z,102857.20
2023-01-23T12:20:01.899Z,102852.66
2023-01-23T12:23:55.450Z,102854.35
2023-01-23T12:27:34.283Z,102856.48
2023-01-23T12:31:25.722Z,102854.48
2023-01-23T12:35:10.733Z,102853.23
2023-01-23T12:38:45.373Z,102853.66
2023-01-23T12:42:20.044Z,102853.93
2023-01-23T12:45:52.071Z,102852.65
2023-01-23T12:49:26.467Z,102849.33
2023-01-23T12:52:59.138Z,102845.55
2023-01-23T12:56:30.995Z,102855.32
2023-01-23T13:00:05.944Z,102858.48
2023-01-23T13:03:46.934Z,102860.17
2023-01-23T13:07:26.090Z,102867.96
2023-01-23T13:11:26.371Z,102868.19
2023-01-23T13:15:12.929Z,102869.59
2023-01-23T13:19:05.401Z,102866.33
2023-01-23T13:22:34.527Z,102863.61
2023-01-23T13:26:31.833Z,102867.05
2023-01-23T13:29:59.764Z,102867.72
2023-01-23T13:34:06.537Z,102861.23
2023-01-23T13:37:57.016Z,102857.00
2023-01-23T13:41:34.324Z,102859.46
2023-01-23T13:45:34.788Z,102858.79
2023-01-23T14:23:57.852Z,102864.88
2023-01-23T14:27:44.477Z,102867.30
2023-01-23T14:31:26.085Z,102869.45
2023-01-23T14:34:53.276Z,102867.61
2023-01-23T14:38:29.001Z,102870.20
2023-01-23T14:41:59.041Z,102869.28
2023-01-23T14:45:31.424Z,102865.59
2023-01-23T14:48:59.841Z,102870.20
2023-01-23T14:52:28.968Z,102873.20
2023-01-23T14:55:59.896Z,102876.98
2023-01-23T14:59:31.582Z,102877.95
2023-01-23T15:02:58.837Z,102882.66
2023-01-23T15:06:26.915Z,102888.11
2023-01-23T15:09:54.131Z,102887.88
2023-01-23T15:13:29.141Z,102885.31
2023-01-23T15:17:03.237Z,102890.89
2023-01-23T15:20:38.415Z,102888.48
2023-01-23T15:24:27.410Z,102893.65
2023-01-23T15:27:54.614Z,102898.39
2023-01-23T15:31:28.481Z,102899.76
2023-01-23T15:34:57.786Z,102909.27
2023-01-23T15:38:24.960Z,102909.30
2023-01-23T15:41:54.405Z,102913.90
2023-01-23T15:45:21.983Z,102922.94
2023-01-23T15:48:49.417Z,102916.71
2023-01-23T15:52:26.673Z,102917.05
2023-01-23T15:55:53.828Z,102915.77
2023-01-23T15:59:21.813Z,102921.36
2023-01-23T16:02:56.207Z,102926.04
2023-01-23T16:06:26.335Z,102926.07
2023-01-23T16:09:55.237Z,102927.91
2023-01-23T16:13:22.268Z,102928.19
2023-01-23T16:16:49.360Z,102929.29
2023-01-23T16:20:19.443Z,102930.02
2023-01-23T16:23:47.766Z,102928.38
2023-01-23T16:27:20.008Z,102931.36
2023-01-23T16:30:47.850Z,102930.40
2023-01-23T16:34:15.069Z,102931.46
2023-01-23T16:37:43.527Z,102933.48
2023-01-23T16:41:11.363Z,102938.86
2023-01-23T16:44:38.360Z,102941.33
2023-01-23T16:48:07.482Z,102945.81
2023-01-23T16:51:36.946Z,102951.23
2023-01-23T16:55:06.368Z,102951.88
2023-01-23T16:58:39.282Z,102956.52
2023-01-23T17:02:20.493Z,102964.36
2023-01-23T17:05:47.754Z,102971.55
2023-01-23T17:09:17.294Z,102968.27
2023-01-23T17:12:43.289Z,102967.59
2023-01-23T17:16:25.700Z,102965.66
2023-01-23T17:19:55.185Z,102965.38
2023-01-23T17:23:22.836Z,102964.27
2023-01-23T17:26:50.170Z,102962.34
2023-01-23T17:30:20.856Z,102958.95
2023-01-23T17:33:48.560Z,102961.52
2023-01-23T17:37:21.130Z,102959.46
2023-01-23T17:40:48.733Z,102962.56
2023-01-23T17:44:16.206Z,102963.53
2023-01-23T17:47:45.302Z,102967.41
2023-01-23T17:51:18.539Z,102967.89
2023-01-23T17:54:46.011Z,102971.80
2023-01-23T17:58:15.736Z,102975.39
2023-01-23T18:01:43.161Z,102975.05
2023-01-23T18:05:13.721Z,102974.61
2023-01-23T18:08:42.385Z,102976.85
2023-01-23T18:12:15.945Z,102974.60
2023-01-23T18:15:53.301Z,102971.66
2023-01-23T18:19:22.586Z,102971.02
2023-01-23T18:22:50.931Z,102969.05
2023-01-23T18:26:37.621Z,102967.23
2023-01-23T18:30:30.865Z,102967.83
2023-01-23T18:34:14.274Z,102966.55
2023-01-23T18:37:54.065Z,102968.52
2023-01-23T18:41:25.094Z,102964.70
2023-01-23T18:44:57.100Z,102965.40
2023-01-23T18:48:26.151Z,102966.02
2023-01-23T18:52:04.000Z,102966.55
2023-01-23T18:55:40.170Z,102965.88
2023-01-23T18:59:20.276Z,102963.48
2023-01-23T19:02:52.474Z,102965.11
2023-01-23T19:06:24.178Z,102965.25
2023-01-23T19:09:53.782Z,102966.75
2023-01-23T19:13:27.265Z,102961.73
2023-01-23T19:17:03.028Z,102968.63
2023-01-23T19:20:41.777Z,102970.48
2023-01-23T19:24:12.829Z,102971.96
2023-01-23T19:27:42.892Z,102972.27
2023-01-23T19:31:22.057Z,102971.30
2023-01-23T19:34:51.570Z,102976.27
2023-01-23T19:38:23.523Z,102978.20
2023-01-23T19:41:54.414Z,102983.27
2023-01-23T19:45:24.187Z,102980.70
2023-01-23T19:48:55.655Z,102984.92
2023-01-23T19:52:25.822Z,102985.77
2023-01-23T19:55:56.384Z,102983.38
2023-01-23T19:59:26.529Z,102983.84
2023-01-23T20:02:56.712Z,102982.98
2023-01-23T20:06:26.494Z,102981.54
2023-01-23T20:09:56.216Z,102981.00
2023-01-23T20:13:26.508Z,102981.60
2023-01-23T20:16:55.697Z,102985.40
2023-01-23T20:20:23.973Z,102983.45
2023-01-23T20:23:54.128Z,102984.33
2023-01-23T20:27:23.457Z,102981.30
2023-01-23T20:30:54.206Z,102988.10
2023-01-23T20:34:24.200Z,102988.02
2023-01-23T20:37:54.024Z,102984.42
2023-01-23T20:41:24.924Z,102985.15
2023-01-23T20:44:55.027Z,102992.58
2023-01-23T20:48:24.984Z,103000.20
2023-01-23T20:51:54.664Z,103002.91
2023-01-23T20:55:24.948Z,103002.84
2023-01-23T20:59:11.840Z,102993.84
2023-01-23T21:02:42.037Z,102995.00
2023-01-23T21:06:14.225Z,102996.05
2023-01-23T21:09:43.498Z,103001.18
2023-01-23T21:13:15.758Z,103002.52
2023-01-23T21:16:46.204Z,103001.95
2023-01-23T21:20:16.256Z,103003.45
2023-01-23T21:23:49.032Z,103001.52
2023-01-23T21:27:20.959Z,102999.17
2023-01-23T21:30:50.294Z,102997.01
2023-01-23T21:34:19.100Z,102997.42
2023-01-23T21:37:46.943Z,103003.36
2023-01-23T21:41:16.036Z,103006.14
2023-01-23T21:44:45.508Z,103009.63
2023-01-23T21:48:12.811Z,103009.08
2023-01-23T21:51:40.449Z,103004.92
2023-01-23T21:55:09.602Z,103010.38
2023-01-23T21:58:37.048Z,103010.56
2023-01-23T22:02:04.359Z,103010.46
2023-01-23T22:05:33.245Z,103012.81
2023-01-23T22:09:00.737Z,103017.45
2023-01-23T22:12:28.821Z,103016.71
2023-01-23T22:15:57.750Z,103014.11
2023-01-23T22:19:25.894Z,103016.23
2023-01-23T22:22:53.268Z,103019.15
2023-01-23T22:26:20.735Z,103015.46
2023-01-23T22:29:47.657Z,103021.11
2023-01-23T22:33:14.721Z,103024.27
2023-01-23T22:36:41.777Z,103024.85
2023-01-23T22:40:11.338Z,103025.77
2023-01-23T22:43:36.719Z,103018.42
2023-01-23T22:47:03.759Z,103013.48
2023-01-23T22:50:30.905Z,103013.52
2023-01-23T22:53:59.331Z,103011.11
2023-01-23T22:57:26.299Z,103005.34
2023-01-23T23:00:54.366Z,103002.52
2023-01-23T23:04:21.283Z,103000.17
2023-01-23T23:07:48.203Z,103003.58
2023-01-23T23:11:17.741Z,103004.02
2023-01-23T23:14:44.720Z,103003.90
2023-01-23T23:18:11.697Z,103002.56
2023-01-23T23:21:39.751Z,102999.31
2023-01-23T23:25:07.746Z,102997.92
2023-01-23T23:28:35.242Z,102995.16
2023-01-23T23:32:02.325Z,102994.67
2023-01-23T23:35:29.587Z,102995.59
2023-01-23T23:38:56.750Z,102992.83
2023-01-23T23:42:23.636Z,102990.25
2023-01-23T23:45:54.673Z,102985.71
2023-01-23T23:49:22.922Z,102985.35
2023-01-23T23:52:50.330Z,102987.32
2023-01-23T23:56:23.406Z,102984.48
2023-01-23T23:59:50.895Z,102983.31
